sensor_id;sensor_type;location;lat;lon;timestamp;P1;durP1;ratioP1;P2;durP2;ratioP2
48873;SDS011;66155;46.204;5.220;2024-03-02T00:01:10;2.35;;;1.90;;
48873;SDS011;66155;46.204;5.220;2024-03-02T00:06:11;2.38;;;2.17;;
48873;SDS011;66155;46.204;5.220;2024-03-02T00:11:12;2.95;;;2.50;;
48873;SDS011;66155;46.204;5.220;2024-03-02T00:16:15;2.58;;;2.20;;
48873;SDS011;66155;46.204;5.220;2024-03-02T00:21:18;2.55;;;1.98;;
48873;SDS011;66155;46.204;5.220;2024-03-02T00:26:22;2.15;;;2.03;;
48873;SDS011;66155;46.204;5.220;2024-03-02T00:31:22;5.05;;;2.20;;
48873;SDS011;66155;46.204;5.220;2024-03-02T00:36:26;3.13;;;2.53;;
48873;SDS011;66155;46.204;5.220;2024-03-02T00:41:27;2.17;;;2.00;;
48873;SDS011;66155;46.204;5.220;2024-03-02T00:46:40;3.53;;;2.20;;
48873;SDS011;66155;46.204;5.220;2024-03-02T00:51:41;2.45;;;2.25;;
48873;SDS011;66155;46.204;5.220;2024-03-02T00:56:47;2.35;;;2.10;;
48873;SDS011;66155;46.204;5.220;2024-03-02T01:01:48;2.20;;;2.00;;
48873;SDS011;66155;46.204;5.220;2024-03-02T01:06:49;4.20;;;2.30;;
48873;SDS011;66155;46.204;5.220;2024-03-02T01:11:50;3.97;;;2.40;;
48873;SDS011;66155;46.204;5.220;2024-03-02T01:16:50;2.53;;;2.20;;
48873;SDS011;66155;46.204;5.220;2024-03-02T01:21:51;2.33;;;2.10;;
48873;SDS011;66155;46.204;5.220;2024-03-02T01:26:51;3.38;;;2.10;;
48873;SDS011;66155;46.204;5.220;2024-03-02T01:31:52;2.42;;;2.22;;
48873;SDS011;66155;46.204;5.220;2024-03-02T01:36:53;2.30;;;2.05;;
48873;SDS011;66155;46.204;5.220;2024-03-02T01:41:54;2.28;;;2.00;;
48873;SDS011;66155;46.204;5.220;2024-03-02T01:46:54;2.35;;;2.05;;
48873;SDS011;66155;46.204;5.220;2024-03-02T01:51:55;2.35;;;2.10;;
48873;SDS011;66155;46.204;5.220;2024-03-02T01:56:56;2.60;;;2.20;;
48873;SDS011;66155;46.204;5.220;2024-03-02T02:01:57;2.25;;;2.05;;
48873;SDS011;66155;46.204;5.220;2024-03-02T02:06:57;2.50;;;2.30;;
48873;SDS011;66155;46.204;5.220;2024-03-02T02:11:58;2.30;;;2.10;;
48873;SDS011;66155;46.204;5.220;2024-03-02T02:16:59;3.25;;;2.17;;
48873;SDS011;66155;46.204;5.220;2024-03-02T02:22:01;2.97;;;2.10;;
48873;SDS011;66155;46.204;5.220;2024-03-02T02:27:01;2.80;;;2.50;;
48873;SDS011;66155;46.204;5.220;2024-03-02T02:32:02;2.20;;;2.00;;
48873;SDS011;66155;46.204;5.220;2024-03-02T02:37:02;2.63;;;2.42;;
48873;SDS011;66155;46.204;5.220;2024-03-02T02:42:03;3.33;;;2.35;;
48873;SDS011;66155;46.204;5.220;2024-03-02T02:47:04;2.20;;;1.98;;
48873;SDS011;66155;46.204;5.220;2024-03-02T02:52:04;3.10;;;2.38;;
48873;SDS011;66155;46.204;5.220;2024-03-02T02:57:05;2.35;;;2.15;;
48873;SDS011;66155;46.204;5.220;2024-03-02T03:02:05;3.30;;;2.17;;
48873;SDS011;66155;46.204;5.220;2024-03-02T03:07:06;2.50;;;2.30;;
48873;SDS011;66155;46.204;5.220;2024-03-02T03:12:07;2.30;;;2.10;;
48873;SDS011;66155;46.204;5.220;2024-03-02T03:17:07;3.88;;;2.42;;
48873;SDS011;66155;46.204;5.220;2024-03-02T03:22:08;2.08;;;1.98;;
48873;SDS011;66155;46.204;5.220;2024-03-02T03:27:09;2.40;;;2.20;;
48873;SDS011;66155;46.204;5.220;2024-03-02T03:32:10;2.15;;;2.05;;
48873;SDS011;66155;46.204;5.220;2024-03-02T03:37:11;2.33;;;2.10;;
48873;SDS011;66155;46.204;5.220;2024-03-02T03:42:11;4.32;;;2.25;;
48873;SDS011;66155;46.204;5.220;2024-03-02T03:47:12;2.60;;;2.40;;
48873;SDS011;66155;46.204;5.220;2024-03-02T03:52:12;2.50;;;2.30;;
48873;SDS011;66155;46.204;5.220;2024-03-02T03:57:12;2.53;;;2.33;;
48873;SDS011;66155;46.204;5.220;2024-03-02T04:02:13;2.60;;;2.40;;
48873;SDS011;66155;46.204;5.220;2024-03-02T04:07:13;2.40;;;2.20;;
48873;SDS011;66155;46.204;5.220;2024-03-02T04:12:14;2.70;;;2.50;;
48873;SDS011;66155;46.204;5.220;2024-03-02T04:17:14;2.13;;;2.00;;
48873;SDS011;66155;46.204;5.220;2024-03-02T04:22:15;2.05;;;1.92;;
48873;SDS011;66155;46.204;5.220;2024-03-02T04:27:15;1.80;;;1.70;;
48873;SDS011;66155;46.204;5.220;2024-03-02T04:32:15;2.03;;;1.92;;
48873;SDS011;66155;46.204;5.220;2024-03-02T04:37:16;2.10;;;2.00;;
48873;SDS011;66155;46.204;5.220;2024-03-02T04:42:16;2.65;;;2.03;;
48873;SDS011;66155;46.204;5.220;2024-03-02T04:47:17;2.10;;;1.98;;
48873;SDS011;66155;46.204;5.220;2024-03-02T04:52:17;2.03;;;1.92;;
48873;SDS011;66155;46.204;5.220;2024-03-02T04:57:18;3.03;;;2.22;;
48873;SDS011;66155;46.204;5.220;2024-03-02T05:02:18;1.92;;;1.83;;
48873;SDS011;66155;46.204;5.220;2024-03-02T05:07:19;2.03;;;1.90;;
48873;SDS011;66155;46.204;5.220;2024-03-02T05:12:20;2.10;;;2.00;;
48873;SDS011;66155;46.204;5.220;2024-03-02T05:17:36;4.70;;;2.13;;
48873;SDS011;66155;46.204;5.220;2024-03-02T05:22:37;2.00;;;1.90;;
48873;SDS011;66155;46.204;5.220;2024-03-02T05:27:38;2.10;;;1.90;;
48873;SDS011;66155;46.204;5.220;2024-03-02T05:32:39;2.58;;;2.15;;
48873;SDS011;66155;46.204;5.220;2024-03-02T05:37:40;2.00;;;1.80;;
48873;SDS011;66155;46.204;5.220;2024-03-02T05:42:40;2.10;;;2.00;;
48873;SDS011;66155;46.204;5.220;2024-03-02T05:47:41;2.25;;;1.95;;
48873;SDS011;66155;46.204;5.220;2024-03-02T05:52:41;1.83;;;1.73;;
48873;SDS011;66155;46.204;5.220;2024-03-02T05:57:42;3.30;;;2.30;;
48873;SDS011;66155;46.204;5.220;2024-03-02T06:07:59;1.93;;;1.83;;
48873;SDS011;66155;46.204;5.220;2024-03-02T06:12:59;2.92;;;2.05;;
48873;SDS011;66155;46.204;5.220;2024-03-02T06:18:00;2.33;;;2.10;;
48873;SDS011;66155;46.204;5.220;2024-03-02T06:23:00;2.30;;;2.10;;
48873;SDS011;66155;46.204;5.220;2024-03-02T06:28:01;2.03;;;1.70;;
48873;SDS011;66155;46.204;5.220;2024-03-02T06:33:01;2.20;;;2.00;;
48873;SDS011;66155;46.204;5.220;2024-03-02T06:38:03;1.85;;;1.70;;
48873;SDS011;66155;46.204;5.220;2024-03-02T06:43:04;2.30;;;2.10;;
48873;SDS011;66155;46.204;5.220;2024-03-02T06:48:05;2.35;;;2.15;;
48873;SDS011;66155;46.204;5.220;2024-03-02T06:53:06;3.65;;;2.40;;
48873;SDS011;66155;46.204;5.220;2024-03-02T06:58:07;2.47;;;2.38;;
48873;SDS011;66155;46.204;5.220;2024-03-02T07:03:07;3.08;;;2.58;;
48873;SDS011;66155;46.204;5.220;2024-03-02T07:08:09;2.50;;;2.20;;
48873;SDS011;66155;46.204;5.220;2024-03-02T07:13:09;2.17;;;2.08;;
48873;SDS011;66155;46.204;5.220;2024-03-02T07:18:10;2.22;;;1.90;;
48873;SDS011;66155;46.204;5.220;2024-03-02T07:23:11;2.47;;;2.25;;
48873;SDS011;66155;46.204;5.220;2024-03-02T07:28:11;6.18;;;2.50;;
48873;SDS011;66155;46.204;5.220;2024-03-02T07:33:12;2.47;;;2.30;;
48873;SDS011;66155;46.204;5.220;2024-03-02T07:38:13;3.30;;;3.10;;
48873;SDS011;66155;46.204;5.220;2024-03-02T07:43:14;3.75;;;2.65;;
48873;SDS011;66155;46.204;5.220;2024-03-02T07:48:14;2.63;;;2.42;;
48873;SDS011;66155;46.204;5.220;2024-03-02T07:53:15;2.60;;;2.40;;
48873;SDS011;66155;46.204;5.220;2024-03-02T07:58:15;5.47;;;2.70;;
48873;SDS011;66155;46.204;5.220;2024-03-02T08:03:18;3.80;;;2.28;;
48873;SDS011;66155;46.204;5.220;2024-03-02T08:08:18;2.72;;;2.40;;
48873;SDS011;66155;46.204;5.220;2024-03-02T08:13:19;3.15;;;2.40;;
48873;SDS011;66155;46.204;5.220;2024-03-02T08:18:19;3.95;;;2.70;;
48873;SDS011;66155;46.204;5.220;2024-03-02T08:23:20;3.83;;;2.50;;
48873;SDS011;66155;46.204;5.220;2024-03-02T08:28:22;3.33;;;2.40;;
48873;SDS011;66155;46.204;5.220;2024-03-02T08:33:22;2.92;;;2.60;;
48873;SDS011;66155;46.204;5.220;2024-03-02T08:38:23;3.90;;;3.42;;
48873;SDS011;66155;46.204;5.220;2024-03-02T08:43:23;2.72;;;2.53;;
48873;SDS011;66155;46.204;5.220;2024-03-02T08:48:25;4.72;;;2.58;;
48873;SDS011;66155;46.204;5.220;2024-03-02T08:53:25;3.15;;;2.85;;
48873;SDS011;66155;46.204;5.220;2024-03-02T08:58:26;4.95;;;2.78;;
48873;SDS011;66155;46.204;5.220;2024-03-02T09:03:26;6.03;;;2.53;;
48873;SDS011;66155;46.204;5.220;2024-03-02T09:08:27;2.63;;;2.40;;
48873;SDS011;66155;46.204;5.220;2024-03-02T09:13:27;4.80;;;3.03;;
48873;SDS011;66155;46.204;5.220;2024-03-02T09:18:29;2.90;;;2.20;;
48873;SDS011;66155;46.204;5.220;2024-03-02T09:23:29;2.85;;;2.33;;
48873;SDS011;66155;46.204;5.220;2024-03-02T09:28:30;2.20;;;2.10;;
48873;SDS011;66155;46.204;5.220;2024-03-02T09:33:30;3.00;;;2.80;;
48873;SDS011;66155;46.204;5.220;2024-03-02T09:38:32;2.88;;;2.63;;
48873;SDS011;66155;46.204;5.220;2024-03-02T09:43:33;5.65;;;4.07;;
48873;SDS011;66155;46.204;5.220;2024-03-02T09:48:34;3.45;;;2.50;;
48873;SDS011;66155;46.204;5.220;2024-03-02T09:53:34;3.00;;;2.60;;
48873;SDS011;66155;46.204;5.220;2024-03-02T09:58:35;3.17;;;2.70;;
48873;SDS011;66155;46.204;5.220;2024-03-02T10:03:36;2.75;;;2.50;;
48873;SDS011;66155;46.204;5.220;2024-03-02T10:08:43;2.63;;;2.40;;
48873;SDS011;66155;46.204;5.220;2024-03-02T10:13:44;2.75;;;2.45;;
48873;SDS011;66155;46.204;5.220;2024-03-02T10:18:45;2.30;;;2.20;;
48873;SDS011;66155;46.204;5.220;2024-03-02T10:23:45;3.67;;;2.38;;
48873;SDS011;66155;46.204;5.220;2024-03-02T10:28:46;2.63;;;2.42;;
48873;SDS011;66155;46.204;5.220;2024-03-02T10:33:59;4.38;;;2.60;;
48873;SDS011;66155;46.204;5.220;2024-03-02T10:39:02;4.57;;;3.72;;
48873;SDS011;66155;46.204;5.220;2024-03-02T10:44:08;4.13;;;2.78;;
48873;SDS011;66155;46.204;5.220;2024-03-02T10:49:09;4.70;;;2.70;;
48873;SDS011;66155;46.204;5.220;2024-03-02T10:54:09;5.55;;;3.70;;
48873;SDS011;66155;46.204;5.220;2024-03-02T11:04:26;4.78;;;3.10;;
48873;SDS011;66155;46.204;5.220;2024-03-02T11:09:28;3.50;;;2.70;;
48873;SDS011;66155;46.204;5.220;2024-03-02T11:14:30;2.88;;;2.67;;
48873;SDS011;66155;46.204;5.220;2024-03-02T11:19:34;3.67;;;2.92;;
48873;SDS011;66155;46.204;5.220;2024-03-02T11:24:37;3.42;;;3.00;;
48873;SDS011;66155;46.204;5.220;2024-03-02T11:34:38;3.58;;;3.15;;
48873;SDS011;66155;46.204;5.220;2024-03-02T11:39:46;3.17;;;2.90;;
48873;SDS011;66155;46.204;5.220;2024-03-02T11:44:50;5.63;;;3.08;;
48873;SDS011;66155;46.204;5.220;2024-03-02T11:49:51;3.35;;;3.05;;
48873;SDS011;66155;46.204;5.220;2024-03-02T11:54:53;3.60;;;3.33;;
48873;SDS011;66155;46.204;5.220;2024-03-02T11:59:53;3.13;;;2.83;;
48873;SDS011;66155;46.204;5.220;2024-03-02T12:04:54;2.92;;;2.70;;
48873;SDS011;66155;46.204;5.220;2024-03-02T12:10:00;4.75;;;2.63;;
48873;SDS011;66155;46.204;5.220;2024-03-02T12:15:03;2.70;;;2.50;;
48873;SDS011;66155;46.204;5.220;2024-03-02T12:20:05;3.38;;;2.80;;
48873;SDS011;66155;46.204;5.220;2024-03-02T12:25:08;3.65;;;3.10;;
48873;SDS011;66155;46.204;5.220;2024-03-02T12:30:09;3.05;;;2.85;;
48873;SDS011;66155;46.204;5.220;2024-03-02T12:35:11;3.10;;;2.85;;
48873;SDS011;66155;46.204;5.220;2024-03-02T12:40:15;3.85;;;2.97;;
48873;SDS011;66155;46.204;5.220;2024-03-02T12:45:20;3.38;;;3.08;;
48873;SDS011;66155;46.204;5.220;2024-03-02T12:50:23;4.72;;;4.38;;
48873;SDS011;66155;46.204;5.220;2024-03-02T12:55:24;3.70;;;3.20;;
48873;SDS011;66155;46.204;5.220;2024-03-02T13:00:24;3.90;;;3.60;;
48873;SDS011;66155;46.204;5.220;2024-03-02T13:05:25;3.90;;;3.15;;
48873;SDS011;66155;46.204;5.220;2024-03-02T13:10:30;5.05;;;3.00;;
48873;SDS011;66155;46.204;5.220;2024-03-02T13:15:32;4.70;;;4.28;;
48873;SDS011;66155;46.204;5.220;2024-03-02T13:20:33;3.88;;;3.22;;
48873;SDS011;66155;46.204;5.220;2024-03-02T13:25:34;4.05;;;3.17;;
48873;SDS011;66155;46.204;5.220;2024-03-02T13:30:35;3.47;;;3.03;;
48873;SDS011;66155;46.204;5.220;2024-03-02T13:35:36;3.60;;;3.30;;
48873;SDS011;66155;46.204;5.220;2024-03-02T13:40:37;3.97;;;2.83;;
48873;SDS011;66155;46.204;5.220;2024-03-02T13:45:38;3.65;;;3.35;;
48873;SDS011;66155;46.204;5.220;2024-03-02T13:50:39;3.40;;;3.15;;
48873;SDS011;66155;46.204;5.220;2024-03-02T13:55:39;4.00;;;3.65;;
48873;SDS011;66155;46.204;5.220;2024-03-02T14:00:41;4.07;;;3.78;;
48873;SDS011;66155;46.204;5.220;2024-03-02T14:05:45;3.35;;;2.78;;
48873;SDS011;66155;46.204;5.220;2024-03-02T14:10:46;3.05;;;2.85;;
48873;SDS011;66155;46.204;5.220;2024-03-02T14:15:46;3.15;;;2.92;;
48873;SDS011;66155;46.204;5.220;2024-03-02T14:20:47;3.33;;;3.00;;
48873;SDS011;66155;46.204;5.220;2024-03-02T14:25:52;3.13;;;2.60;;
48873;SDS011;66155;46.204;5.220;2024-03-02T14:30:53;4.50;;;3.00;;
48873;SDS011;66155;46.204;5.220;2024-03-02T14:35:53;4.38;;;2.70;;
48873;SDS011;66155;46.204;5.220;2024-03-02T14:40:54;3.03;;;2.83;;
48873;SDS011;66155;46.204;5.220;2024-03-02T14:45:54;4.22;;;3.20;;
48873;SDS011;66155;46.204;5.220;2024-03-02T14:50:56;3.72;;;3.17;;
48873;SDS011;66155;46.204;5.220;2024-03-02T14:55:57;2.95;;;2.40;;
48873;SDS011;66155;46.204;5.220;2024-03-02T15:00:58;2.90;;;2.60;;
48873;SDS011;66155;46.204;5.220;2024-03-02T15:05:58;2.88;;;2.38;;
48873;SDS011;66155;46.204;5.220;2024-03-02T15:10:59;3.75;;;2.90;;
48873;SDS011;66155;46.204;5.220;2024-03-02T15:16:00;5.00;;;2.80;;
48873;SDS011;66155;46.204;5.220;2024-03-02T15:21:01;3.40;;;3.10;;
48873;SDS011;66155;46.204;5.220;2024-03-02T15:26:02;3.67;;;3.30;;
48873;SDS011;66155;46.204;5.220;2024-03-02T15:31:02;7.25;;;4.10;;
48873;SDS011;66155;46.204;5.220;2024-03-02T15:36:04;6.93;;;3.85;;
48873;SDS011;66155;46.204;5.220;2024-03-02T15:41:05;3.53;;;3.22;;
48873;SDS011;66155;46.204;5.220;2024-03-02T15:46:05;3.88;;;3.55;;
48873;SDS011;66155;46.204;5.220;2024-03-02T15:51:06;2.90;;;2.70;;
48873;SDS011;66155;46.204;5.220;2024-03-02T15:56:06;3.55;;;3.35;;
48873;SDS011;66155;46.204;5.220;2024-03-02T16:01:07;3.47;;;3.22;;
48873;SDS011;66155;46.204;5.220;2024-03-02T16:06:07;3.13;;;2.80;;
48873;SDS011;66155;46.204;5.220;2024-03-02T16:11:08;4.68;;;3.17;;
48873;SDS011;66155;46.204;5.220;2024-03-02T16:16:08;3.67;;;3.38;;
48873;SDS011;66155;46.204;5.220;2024-03-02T16:21:10;3.22;;;2.92;;
48873;SDS011;66155;46.204;5.220;2024-03-02T16:26:11;3.70;;;3.40;;
48873;SDS011;66155;46.204;5.220;2024-03-02T16:31:12;3.53;;;2.80;;
48873;SDS011;66155;46.204;5.220;2024-03-02T16:36:15;5.40;;;3.03;;
48873;SDS011;66155;46.204;5.220;2024-03-02T16:41:15;4.90;;;4.40;;
48873;SDS011;66155;46.204;5.220;2024-03-02T16:46:17;4.18;;;3.78;;
48873;SDS011;66155;46.204;5.220;2024-03-02T16:51:18;4.55;;;3.80;;
48873;SDS011;66155;46.204;5.220;2024-03-02T16:56:18;3.65;;;3.35;;
48873;SDS011;66155;46.204;5.220;2024-03-02T17:01:19;4.43;;;3.42;;
48873;SDS011;66155;46.204;5.220;2024-03-02T17:06:19;4.47;;;3.63;;
48873;SDS011;66155;46.204;5.220;2024-03-02T17:11:20;4.25;;;3.28;;
48873;SDS011;66155;46.204;5.220;2024-03-02T17:16:20;4.57;;;3.47;;
48873;SDS011;66155;46.204;5.220;2024-03-02T17:21:20;4.00;;;3.08;;
48873;SDS011;66155;46.204;5.220;2024-03-02T17:26:21;4.20;;;2.80;;
48873;SDS011;66155;46.204;5.220;2024-03-02T17:31:22;3.60;;;2.60;;
48873;SDS011;66155;46.204;5.220;2024-03-02T17:36:22;3.47;;;3.22;;
48873;SDS011;66155;46.204;5.220;2024-03-02T17:41:23;4.43;;;4.03;;
48873;SDS011;66155;46.204;5.220;2024-03-02T17:46:24;4.60;;;2.60;;
48873;SDS011;66155;46.204;5.220;2024-03-02T17:51:25;4.93;;;2.80;;
48873;SDS011;66155;46.204;5.220;2024-03-02T17:56:26;4.43;;;2.60;;
48873;SDS011;66155;46.204;5.220;2024-03-02T18:01:26;5.28;;;3.60;;
48873;SDS011;66155;46.204;5.220;2024-03-02T18:06:27;4.28;;;3.00;;
48873;SDS011;66155;46.204;5.220;2024-03-02T18:11:28;5.38;;;3.30;;
48873;SDS011;66155;46.204;5.220;2024-03-02T18:16:28;7.28;;;2.88;;
48873;SDS011;66155;46.204;5.220;2024-03-02T18:21:29;2.70;;;2.50;;
48873;SDS011;66155;46.204;5.220;2024-03-02T18:26:29;5.15;;;2.55;;
48873;SDS011;66155;46.204;5.220;2024-03-02T18:31:33;3.75;;;3.13;;
48873;SDS011;66155;46.204;5.220;2024-03-02T18:36:33;6.80;;;2.75;;
48873;SDS011;66155;46.204;5.220;2024-03-02T18:41:33;4.97;;;3.15;;
48873;SDS011;66155;46.204;5.220;2024-03-02T18:46:34;8.30;;;3.03;;
48873;SDS011;66155;46.204;5.220;2024-03-02T18:51:34;3.13;;;2.90;;
48873;SDS011;66155;46.204;5.220;2024-03-02T18:56:36;5.53;;;3.30;;
48873;SDS011;66155;46.204;5.220;2024-03-02T19:01:36;3.72;;;2.70;;
48873;SDS011;66155;46.204;5.220;2024-03-02T19:06:37;6.80;;;3.50;;
48873;SDS011;66155;46.204;5.220;2024-03-02T19:11:37;3.50;;;2.90;;
48873;SDS011;66155;46.204;5.220;2024-03-02T19:16:38;3.63;;;2.90;;
48873;SDS011;66155;46.204;5.220;2024-03-02T19:21:38;3.97;;;3.05;;
48873;SDS011;66155;46.204;5.220;2024-03-02T19:26:38;4.53;;;3.67;;
48873;SDS011;66155;46.204;5.220;2024-03-02T19:31:39;4.95;;;3.20;;
48873;SDS011;66155;46.204;5.220;2024-03-02T19:36:39;8.50;;;3.63;;
48873;SDS011;66155;46.204;5.220;2024-03-02T19:41:40;3.37;;;2.97;;
48873;SDS011;66155;46.204;5.220;2024-03-02T19:46:40;8.93;;;3.70;;
48873;SDS011;66155;46.204;5.220;2024-03-02T19:51:41;5.53;;;3.30;;
48873;SDS011;66155;46.204;5.220;2024-03-02T19:56:41;4.68;;;3.35;;
48873;SDS011;66155;46.204;5.220;2024-03-02T20:01:42;6.25;;;3.20;;
48873;SDS011;66155;46.204;5.220;2024-03-02T20:06:42;6.05;;;4.53;;
48873;SDS011;66155;46.204;5.220;2024-03-02T20:11:43;6.03;;;3.50;;
48873;SDS011;66155;46.204;5.220;2024-03-02T20:16:43;6.50;;;4.10;;
48873;SDS011;66155;46.204;5.220;2024-03-02T20:21:44;7.03;;;4.95;;
48873;SDS011;66155;46.204;5.220;2024-03-02T20:26:45;7.15;;;4.25;;
48873;SDS011;66155;46.204;5.220;2024-03-02T20:31:45;9.55;;;6.05;;
48873;SDS011;66155;46.204;5.220;2024-03-02T20:36:47;7.95;;;4.53;;
48873;SDS011;66155;46.204;5.220;2024-03-02T20:41:47;8.05;;;5.22;;
48873;SDS011;66155;46.204;5.220;2024-03-02T20:46:48;6.43;;;4.80;;
48873;SDS011;66155;46.204;5.220;2024-03-02T20:51:49;4.95;;;3.47;;
48873;SDS011;66155;46.204;5.220;2024-03-02T20:56:50;4.80;;;2.97;;
48873;SDS011;66155;46.204;5.220;2024-03-02T21:01:51;4.03;;;3.03;;
48873;SDS011;66155;46.204;5.220;2024-03-02T21:06:52;5.05;;;3.35;;
48873;SDS011;66155;46.204;5.220;2024-03-02T21:11:53;4.85;;;3.30;;
48873;SDS011;66155;46.204;5.220;2024-03-02T21:16:54;4.70;;;3.28;;
48873;SDS011;66155;46.204;5.220;2024-03-02T21:21:54;9.98;;;3.70;;
48873;SDS011;66155;46.204;5.220;2024-03-02T21:26:55;7.18;;;3.60;;
48873;SDS011;66155;46.204;5.220;2024-03-02T21:31:55;7.40;;;3.50;;
48873;SDS011;66155;46.204;5.220;2024-03-02T21:36:56;5.40;;;3.35;;
48873;SDS011;66155;46.204;5.220;2024-03-02T21:41:57;6.18;;;3.30;;
48873;SDS011;66155;46.204;5.220;2024-03-02T21:46:58;5.55;;;3.50;;
48873;SDS011;66155;46.204;5.220;2024-03-02T21:51:58;7.03;;;3.30;;
48873;SDS011;66155;46.204;5.220;2024-03-02T21:57:01;6.43;;;3.38;;
48873;SDS011;66155;46.204;5.220;2024-03-02T22:02:03;7.93;;;4.50;;
48873;SDS011;66155;46.204;5.220;2024-03-02T22:07:03;5.50;;;3.67;;
48873;SDS011;66155;46.204;5.220;2024-03-02T22:12:04;4.63;;;3.65;;
48873;SDS011;66155;46.204;5.220;2024-03-02T22:17:05;4.35;;;3.05;;
48873;SDS011;66155;46.204;5.220;2024-03-02T22:22:05;4.00;;;3.20;;
48873;SDS011;66155;46.204;5.220;2024-03-02T22:27:06;6.18;;;3.47;;
48873;SDS011;66155;46.204;5.220;2024-03-02T22:32:06;8.63;;;3.50;;
48873;SDS011;66155;46.204;5.220;2024-03-02T22:37:07;7.10;;;3.45;;
48873;SDS011;66155;46.204;5.220;2024-03-02T22:42:07;6.25;;;3.20;;
48873;SDS011;66155;46.204;5.220;2024-03-02T22:47:09;6.15;;;3.00;;
48873;SDS011;66155;46.204;5.220;2024-03-02T22:52:11;5.00;;;3.17;;
48873;SDS011;66155;46.204;5.220;2024-03-02T22:57:12;6.60;;;3.38;;
48873;SDS011;66155;46.204;5.220;2024-03-02T23:02:17;8.30;;;3.28;;
48873;SDS011;66155;46.204;5.220;2024-03-02T23:07:18;3.13;;;2.60;;
48873;SDS011;66155;46.204;5.220;2024-03-02T23:12:22;5.88;;;3.10;;
48873;SDS011;66155;46.204;5.220;2024-03-02T23:17:22;5.93;;;2.75;;
48873;SDS011;66155;46.204;5.220;2024-03-02T23:22:22;9.63;;;2.85;;
48873;SDS011;66155;46.204;5.220;2024-03-02T23:27:23;4.30;;;2.65;;
48873;SDS011;66155;46.204;5.220;2024-03-02T23:32:23;4.78;;;2.40;;
48873;SDS011;66155;46.204;5.220;2024-03-02T23:37:24;2.95;;;2.20;;
48873;SDS011;66155;46.204;5.220;2024-03-02T23:42:25;3.25;;;2.40;;
48873;SDS011;66155;46.204;5.220;2024-03-02T23:47:25;2.13;;;1.90;;
48873;SDS011;66155;46.204;5.220;2024-03-02T23:52:27;4.65;;;2.40;;
48873;SDS011;66155;46.204;5.220;2024-03-02T23:57:27;2.42;;;1.98;;
